createdAt,value
2023-04-18T00:02:24.349Z,100.00
2023-04-18T00:04:52.107Z,100.00
2023-04-18T00:07:19.701Z,100.00
2023-04-18T00:09:47.329Z,100.00
2023-04-18T00:12:14.953Z,100.00
2023-04-18T00:14:42.607Z,100.00
2023-04-18T00:17:11.551Z,100.00
2023-04-18T00:19:39.179Z,100.00
2023-04-18T00:22:06.797Z,100.00
2023-04-18T00:24:34.473Z,100.00
2023-04-18T00:27:02.078Z,100.00
2023-04-18T00:29:29.746Z,100.00
2023-04-18T00:31:58.544Z,100.00
2023-04-18T00:34:27.446Z,100.00
2023-04-18T00:36:56.234Z,100.00
2023-04-18T00:39:23.861Z,100.00
2023-04-18T00:41:51.420Z,100.00
2023-04-18T00:44:18.999Z,100.00
2023-04-18T00:46:46.617Z,100.00
2023-04-18T00:49:14.338Z,100.00
2023-04-18T00:51:43.866Z,100.00
2023-04-18T00:54:12.462Z,100.00
2023-04-18T00:56:40.537Z,100.00
2023-04-18T00:59:09.741Z,100.00
2023-04-18T01:01:37.463Z,100.00
2023-04-18T01:04:05.437Z,100.00
2023-04-18T01:06:34.088Z,100.00
2023-04-18T01:09:03.384Z,100.00
2023-04-18T01:11:31.179Z,100.00
2023-04-18T01:13:59.981Z,100.00
2023-04-18T01:16:28.364Z,100.00
2023-04-18T01:18:56.229Z,100.00
2023-04-18T01:21:23.904Z,100.00
2023-04-18T01:23:52.809Z,100.00
2023-04-18T01:26:21.864Z,100.00
2023-04-18T01:28:49.620Z,100.00
2023-04-18T01:31:17.296Z,100.00
2023-04-18T01:33:44.978Z,100.00
2023-04-18T01:36:12.724Z,100.00
2023-04-18T01:38:40.390Z,100.00
2023-04-18T01:41:08.080Z,100.00
2023-04-18T01:43:37.081Z,100.00
2023-04-18T01:46:05.057Z,100.00
2023-04-18T01:48:32.723Z,100.00
2023-04-18T01:51:00.442Z,100.00
2023-04-18T01:53:28.396Z,100.00
2023-04-18T01:55:56.067Z,100.00
2023-04-18T01:58:24.015Z,100.00
2023-04-18T02:00:54.215Z,100.00
2023-04-18T02:03:21.904Z,100.00
2023-04-18T02:05:50.257Z,100.00
2023-04-18T02:08:17.986Z,100.00
2023-04-18T02:10:45.800Z,100.00
2023-04-18T02:13:16.233Z,100.00
2023-04-18T02:15:44.352Z,100.00
2023-04-18T02:18:13.315Z,100.00
2023-04-18T02:20:42.328Z,100.00
2023-04-18T02:23:10.063Z,100.00
2023-04-18T02:25:37.708Z,100.00
2023-04-18T02:28:05.316Z,100.00
2023-04-18T02:30:32.997Z,100.00
2023-04-18T02:33:00.829Z,100.00
2023-04-18T02:35:30.641Z,100.00
2023-04-18T02:37:58.252Z,100.00
2023-04-18T02:40:25.999Z,100.00
2023-04-18T02:42:53.605Z,100.00
2023-04-18T02:45:21.514Z,100.00
2023-04-18T02:47:55.557Z,100.00
2023-04-18T02:50:24.880Z,100.00
2023-04-18T02:52:53.985Z,100.00
2023-04-18T02:55:22.045Z,100.00
2023-04-18T02:57:49.776Z,100.00
2023-04-18T03:00:17.665Z,100.00
2023-04-18T03:02:45.360Z,100.00
2023-04-18T03:05:13.178Z,100.00
2023-04-18T03:07:41.072Z,100.00
2023-04-18T03:10:10.810Z,100.00
2023-04-18T03:12:38.398Z,100.00
2023-04-18T03:15:12.378Z,100.00
2023-04-18T03:17:40.097Z,100.00
2023-04-18T03:20:08.424Z,100.00
2023-04-18T03:22:36.164Z,100.00
2023-04-18T03:25:04.550Z,100.00
2023-04-18T03:27:33.561Z,100.00
2023-04-18T03:30:01.240Z,100.00
2023-04-18T03:32:29.246Z,100.00
2023-04-18T03:34:56.825Z,100.00
2023-04-18T03:37:24.703Z,100.00
2023-04-18T03:39:52.338Z,100.00
2023-04-18T03:42:19.978Z,100.00
2023-04-18T03:44:48.926Z,100.00
2023-04-18T03:47:16.510Z,100.00
2023-04-18T03:49:44.116Z,100.00
2023-04-18T03:52:11.737Z,100.00
2023-04-18T03:54:39.364Z,100.00
2023-04-18T03:57:07.146Z,100.00
2023-04-18T03:59:34.732Z,100.00
2023-04-18T04:02:03.902Z,100.00
2023-04-18T04:04:32.558Z,100.00
2023-04-18T04:07:00.832Z,100.00
2023-04-18T04:09:28.692Z,100.00
2023-04-18T04:11:56.339Z,100.00
2023-04-18T04:14:23.894Z,100.00
2023-04-18T04:16:51.645Z,100.00
2023-04-18T04:19:21.902Z,100.00
2023-04-18T04:21:49.672Z,100.00
2023-04-18T04:24:17.341Z,100.00
2023-04-18T04:26:45.047Z,100.00
2023-04-18T04:29:13.120Z,100.00
2023-04-18T04:31:40.707Z,100.00
2023-04-18T04:34:08.319Z,100.00
2023-04-18T04:36:37.337Z,100.00
2023-04-18T04:39:05.139Z,100.00
2023-04-18T04:41:32.971Z,100.00
2023-04-18T04:44:00.555Z,100.00
2023-04-18T04:46:28.362Z,100.00
2023-04-18T04:48:56.243Z,100.00
2023-04-18T04:51:23.818Z,100.00
2023-04-18T04:53:52.793Z,100.00
2023-04-18T04:56:20.483Z,100.00
2023-04-18T04:58:48.077Z,100.00
2023-04-18T05:01:15.726Z,100.00
2023-04-18T05:03:43.745Z,100.00
2023-04-18T05:06:12.048Z,100.00
2023-04-18T05:08:39.683Z,100.00
2023-04-18T05:11:08.648Z,100.00
2023-04-18T05:13:36.376Z,100.00
2023-04-18T05:16:04.693Z,100.00
2023-04-18T05:18:34.835Z,100.00
2023-04-18T05:21:02.885Z,100.00
2023-04-18T05:23:32.342Z,100.00
2023-04-18T05:25:59.934Z,100.00
2023-04-18T05:28:29.000Z,100.00
2023-04-18T05:30:56.732Z,100.00
2023-04-18T05:33:24.282Z,100.00
2023-04-18T05:35:53.104Z,100.00
2023-04-18T05:38:20.890Z,100.00
2023-04-18T05:40:48.573Z,100.00
2023-04-18T05:43:16.253Z,100.00
2023-04-18T05:45:45.800Z,100.00
2023-04-18T05:48:14.046Z,100.00
2023-04-18T05:50:41.711Z,100.00
2023-04-18T05:53:09.412Z,100.00
2023-04-18T05:55:37.147Z,100.00
2023-04-18T05:58:04.681Z,100.00
2023-04-18T06:00:32.221Z,100.00
2023-04-18T06:03:01.906Z,100.00
2023-04-18T06:05:30.048Z,100.00
2023-04-18T06:07:57.919Z,100.00
2023-04-18T06:10:25.475Z,100.00
2023-04-18T06:12:53.083Z,100.00
2023-04-18T06:15:21.454Z,100.00
2023-04-18T06:17:50.429Z,100.00
2023-04-18T06:20:19.623Z,100.00
2023-04-18T06:22:47.173Z,100.00
2023-04-18T06:25:14.911Z,100.00
2023-04-18T06:27:42.467Z,100.00
2023-04-18T06:30:10.698Z,100.00
2023-04-18T06:32:40.670Z,100.00
2023-04-18T06:35:10.172Z,100.00
2023-04-18T06:37:41.637Z,100.00
2023-04-18T06:40:11.317Z,100.00
2023-04-18T06:42:39.211Z,100.00
2023-04-18T06:45:07.819Z,100.00
2023-04-18T06:47:35.780Z,100.00
2023-04-18T06:50:04.133Z,100.00
2023-04-18T06:52:31.798Z,100.00
2023-04-18T06:55:01.047Z,100.00
2023-04-18T06:57:29.605Z,100.00
2023-04-18T07:00:03.799Z,100.00
2023-04-18T07:02:31.687Z,100.00
2023-04-18T07:04:59.376Z,100.00
2023-04-18T07:07:27.234Z,100.00
2023-04-18T07:09:55.033Z,100.00
2023-04-18T07:12:25.573Z,100.00
2023-04-18T07:14:55.192Z,100.00
2023-04-18T07:17:22.941Z,100.00
2023-04-18T07:19:52.189Z,100.00
2023-04-18T07:22:19.841Z,100.00
2023-04-18T07:24:47.534Z,100.00
2023-04-18T07:27:15.363Z,100.00
2023-04-18T07:29:44.422Z,100.00
2023-04-18T07:32:12.061Z,100.00
2023-04-18T07:34:39.609Z,100.00
2023-04-18T07:37:07.171Z,100.00
2023-04-18T07:39:34.746Z,100.00
2023-04-18T07:42:03.403Z,100.00
2023-04-18T07:44:31.072Z,100.00
2023-04-18T07:47:00.012Z,100.00
2023-04-18T07:49:27.605Z,100.00
2023-04-18T07:51:55.830Z,100.00
2023-04-18T07:54:23.748Z,100.00
2023-04-18T07:56:51.327Z,100.00
2023-04-18T07:59:18.928Z,99.55
2023-04-18T08:01:46.606Z,100.00
2023-04-18T08:04:15.754Z,100.00
2023-04-18T08:06:43.486Z,97.20
2023-04-18T08:09:11.758Z,100.00
2023-04-18T08:11:40.973Z,100.00
2023-04-18T08:14:08.615Z,100.00
2023-04-18T08:16:36.553Z,100.00
2023-04-18T08:19:04.176Z,100.00
2023-04-18T08:21:33.127Z,100.00
2023-04-18T08:24:00.906Z,96.31
2023-04-18T08:26:28.862Z,100.00
2023-04-18T08:28:56.483Z,100.00
2023-04-18T08:31:24.408Z,100.00
2023-04-18T08:33:52.041Z,100.00
2023-04-18T08:36:19.626Z,100.00
2023-04-18T08:38:48.579Z,100.00
2023-04-18T08:41:21.866Z,100.00
2023-04-18T08:43:49.569Z,100.00
2023-04-18T08:46:17.488Z,92.04
2023-04-18T08:48:48.583Z,76.22
2023-04-18T08:51:16.343Z,85.74
2023-04-18T08:53:44.309Z,80.75
2023-04-18T08:56:14.834Z,91.64
2023-04-18T08:58:54.216Z,100.00
2023-04-18T09:01:25.680Z,100.00
2023-04-18T09:04:01.789Z,100.00
2023-04-18T09:06:30.590Z,100.00
2023-04-18T09:09:01.246Z,100.00
2023-04-18T09:11:31.438Z,100.00
2023-04-18T09:13:59.853Z,100.00
2023-04-18T09:16:28.155Z,100.00
2023-04-18T09:19:09.587Z,100.00
2023-04-18T09:21:42.601Z,100.00
2023-04-18T09:24:28.005Z,100.00
2023-04-18T09:26:58.601Z,100.00
2023-04-18T09:29:41.972Z,100.00
2023-04-18T09:32:09.718Z,100.00
2023-04-18T09:34:42.067Z,100.00
2023-04-18T09:37:12.113Z,100.00
2023-04-18T09:39:42.313Z,100.00
2023-04-18T09:42:12.414Z,94.85
2023-04-18T09:44:59.302Z,100.00
2023-04-18T09:47:28.514Z,100.00
2023-04-18T09:49:57.555Z,100.00
2023-04-18T09:52:25.730Z,100.00
2023-04-18T09:54:56.712Z,100.00
2023-04-18T09:57:30.129Z,100.00
2023-04-18T10:00:07.888Z,100.00
2023-04-18T10:02:50.950Z,100.00
2023-04-18T10:05:24.336Z,99.06
2023-04-18T10:07:55.657Z,97.07
2023-04-18T10:10:26.854Z,87.18
2023-04-18T10:12:57.710Z,90.47
2023-04-18T10:15:27.655Z,86.42
2023-04-18T10:20:30.295Z,79.56
2023-04-18T10:23:00.405Z,79.42
2023-04-18T10:25:48.432Z,76.28
2023-04-18T10:28:20.393Z,85.23
2023-04-18T10:30:59.253Z,94.48
2023-04-18T10:33:32.374Z,82.68
2023-04-18T10:36:03.662Z,84.12
2023-04-18T10:38:32.635Z,76.21
2023-04-18T10:41:24.476Z,86.10
2023-04-18T10:44:21.635Z,100.00
2023-04-18T10:47:21.186Z,92.98
2023-04-18T10:49:56.947Z,90.18
2023-04-18T10:52:24.713Z,76.27
2023-04-18T10:54:59.234Z,74.42
2023-04-18T10:57:37.959Z,71.40
2023-04-18T11:00:16.191Z,76.63
2023-04-18T11:02:55.114Z,69.63
2023-04-18T11:05:25.783Z,70.43
2023-04-18T11:07:54.876Z,73.31
2023-04-18T11:10:25.093Z,66.93
2023-04-18T11:12:54.484Z,62.38
2023-04-18T11:15:25.580Z,69.43
2023-04-18T11:18:02.115Z,66.65
2023-04-18T11:20:37.798Z,62.54
2023-04-18T11:23:17.278Z,65.85
2023-04-18T11:25:45.687Z,57.51
2023-04-18T11:28:20.707Z,56.04
2023-04-18T11:30:50.083Z,57.91
2023-04-18T11:33:18.014Z,65.79
2023-04-18T11:35:46.813Z,75.03
2023-04-18T11:38:16.261Z,71.52
2023-04-18T11:40:48.139Z,70.97
2023-04-18T11:43:21.375Z,83.84
2023-04-18T11:45:59.016Z,62.69
2023-04-18T11:48:34.480Z,66.92
2023-04-18T11:51:02.198Z,63.58
2023-04-18T11:53:33.312Z,69.02
2023-04-18T11:56:01.092Z,65.37
2023-04-18T11:58:32.626Z,54.63
2023-04-18T12:01:16.246Z,61.64
2023-04-18T12:03:46.975Z,57.50
2023-04-18T12:06:15.313Z,56.88
2023-04-18T12:08:43.383Z,67.62
2023-04-18T12:11:20.206Z,75.54
2023-04-18T12:13:47.737Z,79.40
2023-04-18T12:16:16.778Z,76.02
2023-04-18T12:18:44.556Z,71.51
2023-04-18T12:21:12.263Z,71.49
2023-04-18T12:23:41.327Z,78.88
2023-04-18T12:26:16.048Z,90.00
2023-04-18T12:28:45.974Z,100.00
2023-04-18T12:31:13.633Z,81.55
2023-04-18T12:33:42.638Z,65.21
2023-04-18T12:36:10.336Z,64.78
2023-04-18T12:38:38.012Z,69.47
2023-04-18T12:41:05.978Z,70.32
2023-04-18T12:43:34.641Z,58.73
2023-04-18T12:46:03.529Z,60.93
2023-04-18T12:48:31.208Z,60.93
2023-04-18T12:51:00.406Z,64.15
2023-04-18T12:53:30.904Z,67.03
2023-04-18T12:55:59.097Z,74.87
2023-04-18T12:58:26.684Z,82.57
2023-04-18T13:00:54.489Z,67.62
2023-04-18T13:03:23.822Z,74.83
2023-04-18T13:05:53.064Z,68.61
2023-04-18T13:08:22.724Z,70.64
2023-04-18T13:10:50.864Z,74.84
2023-04-18T13:13:20.337Z,67.25
2023-04-18T13:15:51.520Z,60.90
2023-04-18T13:18:19.546Z,69.80
2023-04-18T13:20:47.136Z,56.49
2023-04-18T13:23:18.392Z,54.29
2023-04-18T13:25:47.549Z,64.58
2023-04-18T13:28:15.279Z,62.92
2023-04-18T13:30:43.942Z,62.99
2023-04-18T13:33:11.954Z,61.39
2023-04-18T13:35:39.626Z,65.91
2023-04-18T13:38:14.703Z,74.12
2023-04-18T13:40:42.376Z,74.10
2023-04-18T13:43:15.295Z,68.14
2023-04-18T13:45:43.685Z,70.37
2023-04-18T13:48:11.498Z,70.77
2023-04-18T13:50:39.179Z,73.28
2023-04-18T13:53:06.824Z,76.31
2023-04-18T13:55:35.981Z,84.25
2023-04-18T13:58:04.580Z,94.43
2023-04-18T14:00:36.254Z,100.00
2023-04-18T14:03:04.267Z,100.00
2023-04-18T14:05:31.963Z,100.00
2023-04-18T14:07:59.664Z,93.62
2023-04-18T14:10:29.653Z,79.89
2023-04-18T14:12:57.512Z,100.00
2023-04-18T14:15:26.674Z,100.00
2023-04-18T14:17:57.868Z,100.00
2023-04-18T14:20:27.879Z,100.00
2023-04-18T14:22:55.442Z,100.00
2023-04-18T14:25:23.906Z,100.00
2023-04-18T14:28:04.768Z,100.00
2023-04-18T14:30:32.657Z,100.00
2023-04-18T14:33:04.802Z,100.00
2023-04-18T14:35:34.104Z,100.00
2023-04-18T14:38:01.892Z,100.00
2023-04-18T14:40:32.727Z,100.00
2023-04-18T14:43:00.955Z,100.00
2023-04-18T14:45:32.393Z,100.00
2023-04-18T14:48:01.415Z,100.00
2023-04-18T14:50:29.277Z,100.00
2023-04-18T14:52:56.948Z,100.00
2023-04-18T14:55:25.425Z,100.00
2023-04-18T14:57:53.039Z,100.00
2023-04-18T15:00:21.097Z,100.00
2023-04-18T15:02:49.301Z,100.00
2023-04-18T15:05:19.996Z,100.00
2023-04-18T15:07:47.581Z,100.00
2023-04-18T15:10:16.207Z,100.00
2023-04-18T15:12:44.005Z,100.00
2023-04-18T15:15:11.655Z,100.00
2023-04-18T15:17:39.663Z,100.00
2023-04-18T15:20:08.434Z,100.00
2023-04-18T15:22:37.716Z,100.00
2023-04-18T15:25:09.832Z,100.00
2023-04-18T15:27:37.420Z,100.00
2023-04-18T15:30:09.135Z,100.00
2023-04-18T15:32:36.808Z,100.00
2023-04-18T15:35:05.725Z,100.00
2023-04-18T15:37:33.423Z,100.00
2023-04-18T15:40:02.463Z,100.00
2023-04-18T15:42:30.187Z,100.00
2023-04-18T15:44:57.796Z,100.00
2023-04-18T15:47:25.434Z,100.00
2023-04-18T15:49:53.132Z,100.00
2023-04-18T15:52:20.731Z,100.00
2023-04-18T15:54:48.335Z,100.00
2023-04-18T15:57:17.471Z,100.00
2023-04-18T15:59:45.285Z,100.00
2023-04-18T16:02:13.023Z,100.00
2023-04-18T16:04:40.821Z,92.05
2023-04-18T16:07:08.454Z,89.08
2023-04-18T16:09:36.074Z,88.05
2023-04-18T16:12:06.535Z,80.71
2023-04-18T16:14:35.480Z,77.29
2023-04-18T16:17:03.069Z,79.04
2023-04-18T16:19:30.858Z,84.50
2023-04-18T16:21:58.649Z,74.35
2023-04-18T16:24:26.193Z,74.73
2023-04-18T16:26:55.985Z,70.08
2023-04-18T16:29:23.850Z,66.05
2023-04-18T16:31:55.100Z,64.68
2023-04-18T16:34:22.986Z,62.24
2023-04-18T16:36:53.047Z,65.73
2023-04-18T16:39:22.350Z,68.93
2023-04-18T16:41:51.010Z,67.49
2023-04-18T16:44:21.078Z,63.32
2023-04-18T16:46:48.726Z,57.51
2023-04-18T16:49:17.779Z,53.17
2023-04-18T16:51:45.562Z,50.42
2023-04-18T16:54:19.749Z,50.51
2023-04-18T16:56:47.853Z,50.21
2023-04-18T16:59:15.988Z,49.15
2023-04-18T17:01:43.880Z,48.58
2023-04-18T17:04:13.040Z,48.38
2023-04-18T17:06:45.210Z,48.57
2023-04-18T17:09:14.442Z,48.82
2023-04-18T17:11:43.065Z,48.36
2023-04-18T17:14:12.687Z,46.74
2023-04-18T17:16:42.013Z,47.45
2023-04-18T17:19:11.095Z,46.99
2023-04-18T17:21:38.938Z,48.51
2023-04-18T17:24:08.955Z,50.83
2023-04-18T17:26:40.226Z,49.78
2023-04-18T17:29:09.309Z,48.18
2023-04-18T17:31:37.171Z,46.88
2023-04-18T17:34:05.087Z,48.84
2023-04-18T17:36:33.291Z,51.40
2023-04-18T17:39:01.592Z,52.23
2023-04-18T17:41:30.804Z,53.51
2023-04-18T17:43:58.414Z,56.79
2023-04-18T17:46:26.181Z,61.47
2023-04-18T17:48:53.841Z,64.95
2023-04-18T17:51:21.937Z,76.99
2023-04-18T17:53:49.698Z,84.75
2023-04-18T17:56:18.540Z,93.53
2023-04-18T17:58:47.546Z,95.28
2023-04-18T18:01:18.610Z,100.00
2023-04-18T18:03:47.168Z,93.96
2023-04-18T18:06:15.857Z,96.88
2023-04-18T18:08:43.986Z,95.30
2023-04-18T18:11:11.815Z,94.74
2023-04-18T18:13:41.213Z,95.58
2023-04-18T18:16:11.418Z,100.00
2023-04-18T18:18:41.913Z,99.58
2023-04-18T18:21:09.598Z,99.88
2023-04-18T18:23:38.391Z,100.00
2023-04-18T18:26:06.001Z,100.00
2023-04-18T18:28:33.640Z,100.00
2023-04-18T18:31:02.995Z,100.00
2023-04-18T18:33:32.418Z,100.00
2023-04-18T18:36:01.405Z,100.00
2023-04-18T18:38:33.100Z,100.00
2023-04-18T18:41:03.723Z,100.00
2023-04-18T18:43:34.854Z,100.00
2023-04-18T18:46:04.049Z,100.00
2023-04-18T18:48:35.134Z,100.00
2023-04-18T18:51:05.271Z,100.00
2023-04-18T18:53:37.744Z,100.00
2023-04-18T18:56:06.766Z,100.00
2023-04-18T18:58:34.425Z,100.00
2023-04-18T19:01:04.746Z,100.00
2023-04-18T19:03:33.961Z,100.00
2023-04-18T19:06:03.492Z,100.00
2023-04-18T19:08:36.543Z,100.00
2023-04-18T19:11:05.622Z,100.00
2023-04-18T19:13:34.462Z,100.00
2023-04-18T19:16:03.935Z,100.00
2023-04-18T19:18:37.325Z,100.00
2023-04-18T19:21:07.984Z,100.00
2023-04-18T19:23:35.621Z,100.00
2023-04-18T19:26:04.445Z,100.00
2023-04-18T19:28:32.284Z,100.00
2023-04-18T19:31:00.176Z,100.00
2023-04-18T19:33:28.352Z,100.00
2023-04-18T19:35:57.317Z,100.00
2023-04-18T19:38:25.127Z,100.00
2023-04-18T19:40:52.891Z,100.00
2023-04-18T19:43:20.977Z,100.00
2023-04-18T19:45:50.243Z,100.00
2023-04-18T19:48:19.568Z,100.00
2023-04-18T19:50:47.537Z,100.00
2023-04-18T19:53:16.642Z,100.00
2023-04-18T19:55:44.632Z,100.00
2023-04-18T19:58:12.244Z,100.00
2023-04-18T20:00:40.089Z,100.00
2023-04-18T20:03:08.251Z,100.00
2023-04-18T20:05:36.207Z,100.00
2023-04-18T20:08:06.196Z,100.00
2023-04-18T20:10:35.510Z,100.00
2023-04-18T20:13:04.720Z,100.00
2023-04-18T20:15:32.349Z,100.00
2023-04-18T20:17:59.925Z,100.00
2023-04-18T20:20:27.761Z,100.00
2023-04-18T20:22:55.288Z,100.00
2023-04-18T20:25:23.084Z,100.00
2023-04-18T20:27:52.486Z,100.00
2023-04-18T20:30:21.550Z,100.00
2023-04-18T20:32:53.315Z,100.00
2023-04-18T20:35:21.267Z,100.00
2023-04-18T20:37:49.458Z,100.00
2023-04-18T20:40:17.092Z,100.00
2023-04-18T20:42:44.701Z,100.00
2023-04-18T20:45:13.646Z,100.00
2023-04-18T20:47:41.413Z,100.00
2023-04-18T20:50:10.220Z,100.00
2023-04-18T20:52:38.044Z,100.00
2023-04-18T20:55:06.370Z,100.00
2023-04-18T20:57:33.994Z,100.00
2023-04-18T21:00:01.791Z,100.00
2023-04-18T21:02:31.923Z,100.00
2023-04-18T21:04:59.724Z,100.00
2023-04-18T21:07:27.399Z,100.00
2023-04-18T21:09:55.191Z,100.00
2023-04-18T21:12:22.812Z,100.00
2023-04-18T21:14:50.424Z,100.00
2023-04-18T21:17:18.057Z,100.00
2023-04-18T21:19:48.462Z,100.00
2023-04-18T21:22:16.862Z,100.00
2023-04-18T21:24:44.428Z,100.00
2023-04-18T21:27:12.186Z,100.00
2023-04-18T21:29:40.850Z,100.00
2023-04-18T21:32:08.592Z,100.00
2023-04-18T21:34:36.159Z,100.00
2023-04-18T21:37:05.225Z,100.00
2023-04-18T21:39:33.146Z,100.00
2023-04-18T21:42:00.719Z,100.00
2023-04-18T21:44:28.273Z,100.00
2023-04-18T21:46:56.564Z,100.00
2023-04-18T21:49:24.234Z,100.00
2023-04-18T21:51:52.090Z,100.00
2023-04-18T21:54:21.149Z,100.00
2023-04-18T21:56:51.090Z,100.00
2023-04-18T21:59:18.632Z,100.00
2023-04-18T22:01:46.229Z,100.00
2023-04-18T22:04:16.804Z,100.00
2023-04-18T22:06:44.618Z,100.00
2023-04-18T22:09:12.395Z,100.00
2023-04-18T22:11:41.387Z,100.00
2023-04-18T22:14:09.003Z,100.00
2023-04-18T22:16:36.749Z,100.00
2023-04-18T22:19:04.394Z,100.00
2023-04-18T22:21:32.485Z,100.00
2023-04-18T22:24:00.047Z,100.00
2023-04-18T22:26:27.701Z,100.00
2023-04-18T22:28:56.761Z,100.00
2023-04-18T22:31:25.771Z,100.00
2023-04-18T22:33:53.801Z,100.00
2023-04-18T22:36:21.600Z,100.00
2023-04-18T22:38:50.570Z,100.00
2023-04-18T22:41:20.500Z,100.00
2023-04-18T22:43:48.061Z,100.00
2023-04-18T22:46:18.533Z,100.00
2023-04-18T22:48:46.379Z,100.00
2023-04-18T22:51:14.277Z,100.00
2023-04-18T22:53:41.848Z,100.00
2023-04-18T22:56:09.414Z,100.00
2023-04-18T22:58:37.032Z,100.00
2023-04-18T23:01:04.958Z,100.00
2023-04-18T23:03:34.564Z,100.00
2023-04-18T23:06:02.501Z,100.00
2023-04-18T23:08:30.181Z,100.00
2023-04-18T23:10:57.731Z,100.00
2023-04-18T23:13:25.897Z,100.00
2023-04-18T23:15:53.462Z,100.00
2023-04-18T23:18:21.121Z,100.00
2023-04-18T23:20:50.079Z,100.00
2023-04-18T23:23:17.949Z,100.00
2023-04-18T23:25:45.689Z,100.00
2023-04-18T23:28:13.246Z,100.00
2023-04-18T23:30:41.150Z,100.00
2023-04-18T23:33:08.769Z,100.00
2023-04-18T23:35:36.594Z,100.00
2023-04-18T23:38:05.592Z,100.00
2023-04-18T23:40:33.237Z,100.00
2023-04-18T23:43:01.752Z,100.00
2023-04-18T23:45:29.330Z,100.00
2023-04-18T23:47:56.930Z,100.00
2023-04-18T23:50:24.537Z,100.00
2023-04-18T23:52:52.105Z,100.00
2023-04-18T23:55:21.128Z,100.00
2023-04-18T23:57:48.799Z,100.00
